sensor_id;sensor_type;location;lat;lon;timestamp;temperature;humidity
42227;DHT22;27892;52.378;13.122;2023-04-12T00:01:16;7.10;63.70
42227;DHT22;27892;52.378;13.122;2023-04-12T00:03:41;7.10;63.70
42227;DHT22;27892;52.378;13.122;2023-04-12T00:06:07;7.10;63.60
42227;DHT22;27892;52.378;13.122;2023-04-12T00:08:37;7.10;63.80
42227;DHT22;27892;52.378;13.122;2023-04-12T00:11:03;7.00;63.80
42227;DHT22;27892;52.378;13.122;2023-04-12T00:13:29;6.90;63.70
42227;DHT22;27892;52.378;13.122;2023-04-12T00:15:55;6.90;64.20
42227;DHT22;27892;52.378;13.122;2023-04-12T00:18:21;6.90;64.30
42227;DHT22;27892;52.378;13.122;2023-04-12T00:20:50;6.90;64.20
42227;DHT22;27892;52.378;13.122;2023-04-12T00:23:16;6.80;64.20
42227;DHT22;27892;52.378;13.122;2023-04-12T00:25:43;6.80;65.30
42227;DHT22;27892;52.378;13.122;2023-04-12T00:28:09;6.80;64.60
42227;DHT22;27892;52.378;13.122;2023-04-12T00:30:34;6.70;64.60
42227;DHT22;27892;52.378;13.122;2023-04-12T00:33:00;6.70;64.80
42227;DHT22;27892;52.378;13.122;2023-04-12T00:35:26;6.70;65.00
42227;DHT22;27892;52.378;13.122;2023-04-12T00:37:52;6.60;65.30
42227;DHT22;27892;52.378;13.122;2023-04-12T00:40:17;6.60;65.40
42227;DHT22;27892;52.378;13.122;2023-04-12T00:42:43;6.70;65.80
42227;DHT22;27892;52.378;13.122;2023-04-12T00:45:09;6.70;65.50
42227;DHT22;27892;52.378;13.122;2023-04-12T00:47:35;6.70;65.60
42227;DHT22;27892;52.378;13.122;2023-04-12T00:50:03;6.60;65.50
42227;DHT22;27892;52.378;13.122;2023-04-12T00:52:31;6.60;65.60
42227;DHT22;27892;52.378;13.122;2023-04-12T00:55:00;6.60;65.60
42227;DHT22;27892;52.378;13.122;2023-04-12T00:57:30;6.60;65.80
42227;DHT22;27892;52.378;13.122;2023-04-12T00:59:58;6.60;65.60
42227;DHT22;27892;52.378;13.122;2023-04-12T01:02:24;6.60;65.70
42227;DHT22;27892;52.378;13.122;2023-04-12T01:04:51;6.60;65.60
42227;DHT22;27892;52.378;13.122;2023-04-12T01:10:08;6.60;65.40
42227;DHT22;27892;52.378;13.122;2023-04-12T01:15:29;6.50;65.60
42227;DHT22;27892;52.378;13.122;2023-04-12T01:18:03;6.50;65.50
42227;DHT22;27892;52.378;13.122;2023-04-12T01:20:39;6.50;65.10
42227;DHT22;27892;52.378;13.122;2023-04-12T01:23:41;6.50;65.20
42227;DHT22;27892;52.378;13.122;2023-04-12T01:26:38;6.40;65.50
42227;DHT22;27892;52.378;13.122;2023-04-12T01:29:24;6.40;65.40
42227;DHT22;27892;52.378;13.122;2023-04-12T01:32:00;6.30;65.10
42227;DHT22;27892;52.378;13.122;2023-04-12T01:34:28;6.30;65.70
42227;DHT22;27892;52.378;13.122;2023-04-12T01:36:57;6.30;66.00
42227;DHT22;27892;52.378;13.122;2023-04-12T01:39:23;6.30;65.60
42227;DHT22;27892;52.378;13.122;2023-04-12T01:41:48;6.40;65.60
42227;DHT22;27892;52.378;13.122;2023-04-12T01:44:15;6.40;65.50
42227;DHT22;27892;52.378;13.122;2023-04-12T01:46:43;6.40;65.20
42227;DHT22;27892;52.378;13.122;2023-04-12T01:49:09;6.40;65.10
42227;DHT22;27892;52.378;13.122;2023-04-12T01:51:57;6.30;65.10
42227;DHT22;27892;52.378;13.122;2023-04-12T01:54:37;6.20;65.20
42227;DHT22;27892;52.378;13.122;2023-04-12T01:57:03;6.10;65.40
42227;DHT22;27892;52.378;13.122;2023-04-12T01:59:41;6.10;65.70
42227;DHT22;27892;52.378;13.122;2023-04-12T02:02:08;6.10;65.90
42227;DHT22;27892;52.378;13.122;2023-04-12T02:04:34;6.10;65.70
42227;DHT22;27892;52.378;13.122;2023-04-12T02:07:01;6.10;65.60
42227;DHT22;27892;52.378;13.122;2023-04-12T02:09:27;6.10;65.30
42227;DHT22;27892;52.378;13.122;2023-04-12T02:11:52;6.00;65.00
42227;DHT22;27892;52.378;13.122;2023-04-12T02:14:18;5.90;65.40
42227;DHT22;27892;52.378;13.122;2023-04-12T02:16:44;5.90;65.60
42227;DHT22;27892;52.378;13.122;2023-04-12T02:19:11;5.90;66.20
42227;DHT22;27892;52.378;13.122;2023-04-12T02:21:44;5.90;65.80
42227;DHT22;27892;52.378;13.122;2023-04-12T02:24:10;5.90;65.90
42227;DHT22;27892;52.378;13.122;2023-04-12T02:26:37;5.80;65.70
42227;DHT22;27892;52.378;13.122;2023-04-12T02:29:04;5.90;65.90
42227;DHT22;27892;52.378;13.122;2023-04-12T02:31:32;5.90;65.70
42227;DHT22;27892;52.378;13.122;2023-04-12T02:33:59;5.80;65.30
42227;DHT22;27892;52.378;13.122;2023-04-12T02:36:25;5.80;65.30
42227;DHT22;27892;52.378;13.122;2023-04-12T02:38:50;5.80;65.40
42227;DHT22;27892;52.378;13.122;2023-04-12T02:41:17;5.80;65.00
42227;DHT22;27892;52.378;13.122;2023-04-12T02:43:43;5.70;65.20
42227;DHT22;27892;52.378;13.122;2023-04-12T02:46:08;5.70;65.30
42227;DHT22;27892;52.378;13.122;2023-04-12T02:48:34;5.70;65.30
42227;DHT22;27892;52.378;13.122;2023-04-12T02:51:00;5.70;66.10
42227;DHT22;27892;52.378;13.122;2023-04-12T02:53:25;5.70;65.30
42227;DHT22;27892;52.378;13.122;2023-04-12T02:55:51;5.70;65.00
42227;DHT22;27892;52.378;13.122;2023-04-12T02:58:17;5.60;64.90
42227;DHT22;27892;52.378;13.122;2023-04-12T03:00:44;5.60;64.80
42227;DHT22;27892;52.378;13.122;2023-04-12T03:03:11;5.50;64.60
42227;DHT22;27892;52.378;13.122;2023-04-12T03:05:36;5.40;64.90
42227;DHT22;27892;52.378;13.122;2023-04-12T03:08:02;5.40;65.30
42227;DHT22;27892;52.378;13.122;2023-04-12T03:10:28;5.40;65.70
42227;DHT22;27892;52.378;13.122;2023-04-12T03:12:53;5.50;65.60
42227;DHT22;27892;52.378;13.122;2023-04-12T03:15:19;5.50;65.50
42227;DHT22;27892;52.378;13.122;2023-04-12T03:17:47;5.50;65.10
42227;DHT22;27892;52.378;13.122;2023-04-12T03:20:13;5.50;65.00
42227;DHT22;27892;52.378;13.122;2023-04-12T03:22:39;5.50;65.10
42227;DHT22;27892;52.378;13.122;2023-04-12T03:25:05;5.50;64.80
42227;DHT22;27892;52.378;13.122;2023-04-12T03:27:31;5.40;64.80
42227;DHT22;27892;52.378;13.122;2023-04-12T03:29:56;5.40;64.70
42227;DHT22;27892;52.378;13.122;2023-04-12T03:32:23;5.40;64.50
42227;DHT22;27892;52.378;13.122;2023-04-12T03:34:48;5.30;64.60
42227;DHT22;27892;52.378;13.122;2023-04-12T03:37:14;5.20;64.60
42227;DHT22;27892;52.378;13.122;2023-04-12T03:39:40;5.20;64.80
42227;DHT22;27892;52.378;13.122;2023-04-12T03:42:05;5.20;64.90
42227;DHT22;27892;52.378;13.122;2023-04-12T03:44:31;5.20;64.80
42227;DHT22;27892;52.378;13.122;2023-04-12T03:46:57;5.20;64.60
42227;DHT22;27892;52.378;13.122;2023-04-12T03:49:22;5.20;64.40
42227;DHT22;27892;52.378;13.122;2023-04-12T03:51:48;5.20;64.70
42227;DHT22;27892;52.378;13.122;2023-04-12T03:54:15;5.10;64.70
42227;DHT22;27892;52.378;13.122;2023-04-12T03:56:41;5.10;64.70
42227;DHT22;27892;52.378;13.122;2023-04-12T03:59:06;5.00;64.60
42227;DHT22;27892;52.378;13.122;2023-04-12T04:01:35;5.00;64.80
42227;DHT22;27892;52.378;13.122;2023-04-12T04:04:02;4.90;64.90
42227;DHT22;27892;52.378;13.122;2023-04-12T04:06:28;4.90;65.10
42227;DHT22;27892;52.378;13.122;2023-04-12T04:08:55;4.90;65.10
42227;DHT22;27892;52.378;13.122;2023-04-12T04:11:21;4.90;65.10
42227;DHT22;27892;52.378;13.122;2023-04-12T04:13:47;5.00;65.00
42227;DHT22;27892;52.378;13.122;2023-04-12T04:16:13;5.00;64.80
42227;DHT22;27892;52.378;13.122;2023-04-12T04:18:38;5.00;64.80
42227;DHT22;27892;52.378;13.122;2023-04-12T04:21:04;5.10;64.80
42227;DHT22;27892;52.378;13.122;2023-04-12T04:23:32;5.00;64.40
42227;DHT22;27892;52.378;13.122;2023-04-12T04:26:04;5.00;64.60
42227;DHT22;27892;52.378;13.122;2023-04-12T04:28:30;4.90;65.00
42227;DHT22;27892;52.378;13.122;2023-04-12T04:30:59;4.80;65.50
42227;DHT22;27892;52.378;13.122;2023-04-12T04:33:28;4.80;65.90
42227;DHT22;27892;52.378;13.122;2023-04-12T04:35:54;4.80;66.00
42227;DHT22;27892;52.378;13.122;2023-04-12T04:38:21;4.80;66.20
42227;DHT22;27892;52.378;13.122;2023-04-12T04:40:50;4.80;66.00
42227;DHT22;27892;52.378;13.122;2023-04-12T04:43:18;4.80;66.30
42227;DHT22;27892;52.378;13.122;2023-04-12T04:45:45;4.80;66.50
42227;DHT22;27892;52.378;13.122;2023-04-12T04:48:13;5.00;66.40
42227;DHT22;27892;52.378;13.122;2023-04-12T04:50:39;4.90;65.80
42227;DHT22;27892;52.378;13.122;2023-04-12T04:53:05;4.90;66.00
42227;DHT22;27892;52.378;13.122;2023-04-12T04:55:30;4.90;66.20
42227;DHT22;27892;52.378;13.122;2023-04-12T04:57:56;4.90;66.40
42227;DHT22;27892;52.378;13.122;2023-04-12T05:00:22;4.90;66.80
42227;DHT22;27892;52.378;13.122;2023-04-12T05:02:50;5.00;67.20
42227;DHT22;27892;52.378;13.122;2023-04-12T05:05:16;5.10;67.60
42227;DHT22;27892;52.378;13.122;2023-04-12T05:07:42;5.20;67.90
42227;DHT22;27892;52.378;13.122;2023-04-12T05:10:09;5.30;67.70
42227;DHT22;27892;52.378;13.122;2023-04-12T05:12:36;5.40;67.70
42227;DHT22;27892;52.378;13.122;2023-04-12T05:15:02;5.60;67.80
42227;DHT22;27892;52.378;13.122;2023-04-12T05:17:28;5.80;68.00
42227;DHT22;27892;52.378;13.122;2023-04-12T05:19:54;6.00;68.20
42227;DHT22;27892;52.378;13.122;2023-04-12T05:22:20;6.70;69.50
42227;DHT22;27892;52.378;13.122;2023-04-12T05:24:49;8.10;66.80
42227;DHT22;27892;52.378;13.122;2023-04-12T05:27:15;9.60;63.80
42227;DHT22;27892;52.378;13.122;2023-04-12T05:29:44;10.90;58.30
42227;DHT22;27892;52.378;13.122;2023-04-12T05:32:10;11.70;56.50
42227;DHT22;27892;52.378;13.122;2023-04-12T05:34:36;12.70;55.40
42227;DHT22;27892;52.378;13.122;2023-04-12T05:37:02;13.80;52.30
42227;DHT22;27892;52.378;13.122;2023-04-12T05:39:28;14.20;50.50
42227;DHT22;27892;52.378;13.122;2023-04-12T05:41:54;15.00;49.80
42227;DHT22;27892;52.378;13.122;2023-04-12T05:44:20;15.60;47.80
42227;DHT22;27892;52.378;13.122;2023-04-12T05:46:46;16.20;45.10
42227;DHT22;27892;52.378;13.122;2023-04-12T05:49:11;16.60;44.80
42227;DHT22;27892;52.378;13.122;2023-04-12T05:51:37;17.50;43.70
42227;DHT22;27892;52.378;13.122;2023-04-12T05:54:03;18.30;43.10
42227;DHT22;27892;52.378;13.122;2023-04-12T05:56:32;19.30;40.30
42227;DHT22;27892;52.378;13.122;2023-04-12T05:58:58;19.80;38.10
42227;DHT22;27892;52.378;13.122;2023-04-12T06:01:26;20.70;38.60
42227;DHT22;27892;52.378;13.122;2023-04-12T06:03:56;21.50;36.00
42227;DHT22;27892;52.378;13.122;2023-04-12T06:06:22;21.60;33.90
42227;DHT22;27892;52.378;13.122;2023-04-12T06:08:48;21.70;32.50
42227;DHT22;27892;52.378;13.122;2023-04-12T06:11:13;22.00;32.60
42227;DHT22;27892;52.378;13.122;2023-04-12T06:13:40;21.20;30.40
42227;DHT22;27892;52.378;13.122;2023-04-12T06:16:06;20.80;32.10
42227;DHT22;27892;52.378;13.122;2023-04-12T06:18:32;20.50;32.20
42227;DHT22;27892;52.378;13.122;2023-04-12T06:20:58;20.90;33.00
42227;DHT22;27892;52.378;13.122;2023-04-12T06:23:24;22.00;33.40
42227;DHT22;27892;52.378;13.122;2023-04-12T06:25:51;22.30;31.80
42227;DHT22;27892;52.378;13.122;2023-04-12T06:28:18;23.50;31.90
42227;DHT22;27892;52.378;13.122;2023-04-12T06:30:43;23.90;29.10
42227;DHT22;27892;52.378;13.122;2023-04-12T06:33:10;23.70;28.70
42227;DHT22;27892;52.378;13.122;2023-04-12T06:35:36;23.60;28.60
42227;DHT22;27892;52.378;13.122;2023-04-12T06:38:01;23.60;29.00
42227;DHT22;27892;52.378;13.122;2023-04-12T06:40:27;23.10;29.60
42227;DHT22;27892;52.378;13.122;2023-04-12T06:42:53;23.30;29.70
42227;DHT22;27892;52.378;13.122;2023-04-12T06:45:18;23.60;29.90
42227;DHT22;27892;52.378;13.122;2023-04-12T06:47:44;24.50;29.30
42227;DHT22;27892;52.378;13.122;2023-04-12T06:50:10;25.10;27.30
42227;DHT22;27892;52.378;13.122;2023-04-12T06:52:35;25.70;27.80
42227;DHT22;27892;52.378;13.122;2023-04-12T06:55:01;26.30;27.50
42227;DHT22;27892;52.378;13.122;2023-04-12T06:57:27;27.20;26.70
42227;DHT22;27892;52.378;13.122;2023-04-12T06:59:52;26.70;25.70
42227;DHT22;27892;52.378;13.122;2023-04-12T07:02:18;26.80;25.90
42227;DHT22;27892;52.378;13.122;2023-04-12T07:04:44;27.40;25.30
42227;DHT22;27892;52.378;13.122;2023-04-12T07:07:10;28.10;24.90
42227;DHT22;27892;52.378;13.122;2023-04-12T07:09:35;27.60;25.00
42227;DHT22;27892;52.378;13.122;2023-04-12T07:12:01;28.00;24.80
42227;DHT22;27892;52.378;13.122;2023-04-12T07:14:27;29.00;24.40
42227;DHT22;27892;52.378;13.122;2023-04-12T07:16:53;28.40;23.10
42227;DHT22;27892;52.378;13.122;2023-04-12T07:19:18;28.70;24.60
42227;DHT22;27892;52.378;13.122;2023-04-12T07:21:44;29.80;23.40
42227;DHT22;27892;52.378;13.122;2023-04-12T07:24:10;29.90;22.10
42227;DHT22;27892;52.378;13.122;2023-04-12T07:26:36;30.70;22.70
42227;DHT22;27892;52.378;13.122;2023-04-12T07:29:01;31.10;21.20
42227;DHT22;27892;52.378;13.122;2023-04-12T07:31:27;28.60;21.90
42227;DHT22;27892;52.378;13.122;2023-04-12T07:33:56;28.40;23.90
42227;DHT22;27892;52.378;13.122;2023-04-12T07:36:22;28.80;23.00
42227;DHT22;27892;52.378;13.122;2023-04-12T07:38:47;28.40;23.40
42227;DHT22;27892;52.378;13.122;2023-04-12T07:41:13;29.70;23.60
42227;DHT22;27892;52.378;13.122;2023-04-12T07:43:39;30.80;23.10
42227;DHT22;27892;52.378;13.122;2023-04-12T07:46:05;30.80;20.70
42227;DHT22;27892;52.378;13.122;2023-04-12T07:48:33;30.80;21.70
42227;DHT22;27892;52.378;13.122;2023-04-12T07:50:58;29.40;20.70
42227;DHT22;27892;52.378;13.122;2023-04-12T07:53:27;28.50;21.70
42227;DHT22;27892;52.378;13.122;2023-04-12T07:55:54;27.30;22.90
42227;DHT22;27892;52.378;13.122;2023-04-12T07:58:22;26.90;22.40
42227;DHT22;27892;52.378;13.122;2023-04-12T08:00:47;27.30;23.20
42227;DHT22;27892;52.378;13.122;2023-04-12T08:03:15;28.30;22.30
42227;DHT22;27892;52.378;13.122;2023-04-12T08:05:42;28.70;21.80
42227;DHT22;27892;52.378;13.122;2023-04-12T08:08:09;29.50;21.50
42227;DHT22;27892;52.378;13.122;2023-04-12T08:10:35;28.00;21.70
42227;DHT22;27892;52.378;13.122;2023-04-12T08:13:02;28.60;22.40
42227;DHT22;27892;52.378;13.122;2023-04-12T08:15:28;28.70;21.70
42227;DHT22;27892;52.378;13.122;2023-04-12T08:17:53;29.20;21.30
42227;DHT22;27892;52.378;13.122;2023-04-12T08:20:19;29.80;21.80
42227;DHT22;27892;52.378;13.122;2023-04-12T08:22:45;29.50;20.20
42227;DHT22;27892;52.378;13.122;2023-04-12T08:25:11;29.20;20.70
42227;DHT22;27892;52.378;13.122;2023-04-12T08:27:40;27.30;21.40
42227;DHT22;27892;52.378;13.122;2023-04-12T08:30:07;26.70;22.00
42227;DHT22;27892;52.378;13.122;2023-04-12T08:32:33;25.90;23.50
42227;DHT22;27892;52.378;13.122;2023-04-12T08:34:59;24.80;23.30
42227;DHT22;27892;52.378;13.122;2023-04-12T08:37:25;25.10;23.90
42227;DHT22;27892;52.378;13.122;2023-04-12T08:39:50;24.50;23.60
42227;DHT22;27892;52.378;13.122;2023-04-12T08:42:16;24.20;24.10
42227;DHT22;27892;52.378;13.122;2023-04-12T08:44:42;24.30;23.90
42227;DHT22;27892;52.378;13.122;2023-04-12T08:47:09;23.20;24.90
42227;DHT22;27892;52.378;13.122;2023-04-12T08:49:35;24.10;25.50
42227;DHT22;27892;52.378;13.122;2023-04-12T08:52:06;24.20;23.80
42227;DHT22;27892;52.378;13.122;2023-04-12T08:54:33;23.70;25.50
42227;DHT22;27892;52.378;13.122;2023-04-12T08:57:02;23.80;25.80
42227;DHT22;27892;52.378;13.122;2023-04-12T08:59:29;22.90;25.20
42227;DHT22;27892;52.378;13.122;2023-04-12T09:01:55;21.90;26.40
42227;DHT22;27892;52.378;13.122;2023-04-12T09:04:22;21.90;27.00
42227;DHT22;27892;52.378;13.122;2023-04-12T09:06:48;21.70;26.60
42227;DHT22;27892;52.378;13.122;2023-04-12T09:09:14;21.60;27.10
42227;DHT22;27892;52.378;13.122;2023-04-12T09:11:40;21.50;26.80
42227;DHT22;27892;52.378;13.122;2023-04-12T09:14:22;21.40;27.20
42227;DHT22;27892;52.378;13.122;2023-04-12T09:16:49;21.10;26.10
42227;DHT22;27892;52.378;13.122;2023-04-12T09:19:15;21.40;26.20
42227;DHT22;27892;52.378;13.122;2023-04-12T09:21:55;21.20;26.80
42227;DHT22;27892;52.378;13.122;2023-04-12T09:24:21;21.40;26.00
42227;DHT22;27892;52.378;13.122;2023-04-12T09:27:08;21.70;26.60
42227;DHT22;27892;52.378;13.122;2023-04-12T09:29:35;22.30;26.10
42227;DHT22;27892;52.378;13.122;2023-04-12T09:32:08;22.50;25.30
42227;DHT22;27892;52.378;13.122;2023-04-12T09:34:35;22.90;24.90
42227;DHT22;27892;52.378;13.122;2023-04-12T09:37:14;23.20;24.20
42227;DHT22;27892;52.378;13.122;2023-04-12T09:39:40;23.40;24.30
42227;DHT22;27892;52.378;13.122;2023-04-12T09:42:11;23.10;24.90
42227;DHT22;27892;52.378;13.122;2023-04-12T09:44:37;22.60;24.20
42227;DHT22;27892;52.378;13.122;2023-04-12T09:47:03;22.40;24.30
42227;DHT22;27892;52.378;13.122;2023-04-12T09:49:43;22.10;24.50
42227;DHT22;27892;52.378;13.122;2023-04-12T09:52:11;22.40;25.20
42227;DHT22;27892;52.378;13.122;2023-04-12T09:54:46;21.30;25.50
42227;DHT22;27892;52.378;13.122;2023-04-12T09:57:20;22.00;26.50
42227;DHT22;27892;52.378;13.122;2023-04-12T09:59:48;21.00;25.10
42227;DHT22;27892;52.378;13.122;2023-04-12T10:02:19;20.80;26.50
42227;DHT22;27892;52.378;13.122;2023-04-12T10:04:47;20.90;26.30
42227;DHT22;27892;52.378;13.122;2023-04-12T10:07:13;20.80;26.10
42227;DHT22;27892;52.378;13.122;2023-04-12T10:09:40;21.60;26.00
42227;DHT22;27892;52.378;13.122;2023-04-12T10:12:07;21.70;25.90
42227;DHT22;27892;52.378;13.122;2023-04-12T10:14:33;21.70;26.90
42227;DHT22;27892;52.378;13.122;2023-04-12T10:17:01;21.60;25.40
42227;DHT22;27892;52.378;13.122;2023-04-12T10:19:29;20.60;24.70
42227;DHT22;27892;52.378;13.122;2023-04-12T10:21:55;20.40;26.30
42227;DHT22;27892;52.378;13.122;2023-04-12T10:24:23;21.50;25.80
42227;DHT22;27892;52.378;13.122;2023-04-12T10:26:49;22.00;25.40
42227;DHT22;27892;52.378;13.122;2023-04-12T10:29:30;22.00;24.80
42227;DHT22;27892;52.378;13.122;2023-04-12T10:32:19;22.40;24.90
42227;DHT22;27892;52.378;13.122;2023-04-12T10:34:52;21.80;24.40
42227;DHT22;27892;52.378;13.122;2023-04-12T10:37:18;21.60;25.40
42227;DHT22;27892;52.378;13.122;2023-04-12T10:39:51;21.80;25.40
42227;DHT22;27892;52.378;13.122;2023-04-12T10:42:29;23.00;26.10
42227;DHT22;27892;52.378;13.122;2023-04-12T10:44:56;24.00;25.90
42227;DHT22;27892;52.378;13.122;2023-04-12T10:55:38;24.80;23.50
42227;DHT22;27892;52.378;13.122;2023-04-12T10:58:04;25.90;22.10
42227;DHT22;27892;52.378;13.122;2023-04-12T11:03:21;26.70;21.80
42227;DHT22;27892;52.378;13.122;2023-04-12T11:06:01;26.50;20.40
42227;DHT22;27892;52.378;13.122;2023-04-12T11:08:28;25.30;21.40
42227;DHT22;27892;52.378;13.122;2023-04-12T11:11:02;24.40;22.30
42227;DHT22;27892;52.378;13.122;2023-04-12T11:13:34;24.30;22.70
42227;DHT22;27892;52.378;13.122;2023-04-12T11:16:04;24.70;22.50
42227;DHT22;27892;52.378;13.122;2023-04-12T11:18:32;24.70;21.90
42227;DHT22;27892;52.378;13.122;2023-04-12T11:21:01;23.80;21.90
42227;DHT22;27892;52.378;13.122;2023-04-12T11:23:27;23.20;23.00
42227;DHT22;27892;52.378;13.122;2023-04-12T11:25:53;23.30;23.40
42227;DHT22;27892;52.378;13.122;2023-04-12T11:28:19;23.50;23.60
42227;DHT22;27892;52.378;13.122;2023-04-12T11:30:54;24.50;22.90
42227;DHT22;27892;52.378;13.122;2023-04-12T11:33:34;24.70;22.50
42227;DHT22;27892;52.378;13.122;2023-04-12T11:36:11;25.00;22.40
42227;DHT22;27892;52.378;13.122;2023-04-12T11:38:37;24.80;21.80
42227;DHT22;27892;52.378;13.122;2023-04-12T11:41:04;25.10;22.30
42227;DHT22;27892;52.378;13.122;2023-04-12T11:43:35;25.30;22.00
42227;DHT22;27892;52.378;13.122;2023-04-12T11:46:03;25.00;22.40
42227;DHT22;27892;52.378;13.122;2023-04-12T11:48:29;25.00;22.80
42227;DHT22;27892;52.378;13.122;2023-04-12T11:50:55;24.90;22.40
42227;DHT22;27892;52.378;13.122;2023-04-12T11:53:26;23.80;22.90
42227;DHT22;27892;52.378;13.122;2023-04-12T11:55:55;23.30;23.50
42227;DHT22;27892;52.378;13.122;2023-04-12T11:58:22;23.20;23.80
42227;DHT22;27892;52.378;13.122;2023-04-12T12:00:50;23.00;23.70
42227;DHT22;27892;52.378;13.122;2023-04-12T12:03:16;21.50;23.70
42227;DHT22;27892;52.378;13.122;2023-04-12T12:05:43;21.10;24.90
42227;DHT22;27892;52.378;13.122;2023-04-12T12:08:09;20.80;25.00
42227;DHT22;27892;52.378;13.122;2023-04-12T12:10:37;20.80;24.90
42227;DHT22;27892;52.378;13.122;2023-04-12T12:13:11;21.40;25.50
42227;DHT22;27892;52.378;13.122;2023-04-12T12:15:37;20.90;25.00
42227;DHT22;27892;52.378;13.122;2023-04-12T12:18:06;20.10;25.40
42227;DHT22;27892;52.378;13.122;2023-04-12T12:20:37;19.90;26.50
42227;DHT22;27892;52.378;13.122;2023-04-12T12:23:03;19.90;25.90
42227;DHT22;27892;52.378;13.122;2023-04-12T12:25:29;20.00;26.10
42227;DHT22;27892;52.378;13.122;2023-04-12T12:27:58;20.10;26.40
42227;DHT22;27892;52.378;13.122;2023-04-12T12:30:23;20.40;26.60
42227;DHT22;27892;52.378;13.122;2023-04-12T12:32:51;20.10;26.90
42227;DHT22;27892;52.378;13.122;2023-04-12T12:35:19;20.50;27.10
42227;DHT22;27892;52.378;13.122;2023-04-12T12:37:52;20.60;26.70
42227;DHT22;27892;52.378;13.122;2023-04-12T12:40:30;20.70;26.50
42227;DHT22;27892;52.378;13.122;2023-04-12T12:43:00;20.40;26.80
42227;DHT22;27892;52.378;13.122;2023-04-12T12:45:27;20.40;27.40
42227;DHT22;27892;52.378;13.122;2023-04-12T12:48:00;20.30;27.30
42227;DHT22;27892;52.378;13.122;2023-04-12T12:50:31;19.70;27.70
42227;DHT22;27892;52.378;13.122;2023-04-12T12:52:57;19.90;27.60
42227;DHT22;27892;52.378;13.122;2023-04-12T12:55:26;20.70;28.00
42227;DHT22;27892;52.378;13.122;2023-04-12T12:57:53;21.20;27.70
42227;DHT22;27892;52.378;13.122;2023-04-12T13:00:22;21.70;27.20
42227;DHT22;27892;52.378;13.122;2023-04-12T13:02:48;21.50;26.90
42227;DHT22;27892;52.378;13.122;2023-04-12T13:05:15;21.30;26.70
42227;DHT22;27892;52.378;13.122;2023-04-12T13:07:41;21.20;26.50
42227;DHT22;27892;52.378;13.122;2023-04-12T13:10:08;20.80;26.80
42227;DHT22;27892;52.378;13.122;2023-04-12T13:12:34;20.90;27.50
42227;DHT22;27892;52.378;13.122;2023-04-12T13:15:00;20.70;27.30
42227;DHT22;27892;52.378;13.122;2023-04-12T13:17:27;20.90;27.20
42227;DHT22;27892;52.378;13.122;2023-04-12T13:19:53;20.30;27.30
42227;DHT22;27892;52.378;13.122;2023-04-12T13:22:19;20.10;27.60
42227;DHT22;27892;52.378;13.122;2023-04-12T13:24:44;20.10;27.90
42227;DHT22;27892;52.378;13.122;2023-04-12T13:27:11;19.70;27.90
42227;DHT22;27892;52.378;13.122;2023-04-12T13:29:37;19.60;28.40
42227;DHT22;27892;52.378;13.122;2023-04-12T13:32:43;19.40;28.20
42227;DHT22;27892;52.378;13.122;2023-04-12T13:35:12;19.60;28.50
42227;DHT22;27892;52.378;13.122;2023-04-12T13:37:38;19.70;28.60
42227;DHT22;27892;52.378;13.122;2023-04-12T13:40:04;19.30;28.90
42227;DHT22;27892;52.378;13.122;2023-04-12T13:42:30;19.60;29.20
42227;DHT22;27892;52.378;13.122;2023-04-12T13:44:56;19.80;29.70
42227;DHT22;27892;52.378;13.122;2023-04-12T13:47:22;19.50;28.90
42227;DHT22;27892;52.378;13.122;2023-04-12T13:49:48;19.30;29.00
42227;DHT22;27892;52.378;13.122;2023-04-12T13:52:14;19.20;29.00
42227;DHT22;27892;52.378;13.122;2023-04-12T13:54:40;19.40;28.90
42227;DHT22;27892;52.378;13.122;2023-04-12T13:57:07;19.30;28.70
42227;DHT22;27892;52.378;13.122;2023-04-12T13:59:33;18.90;28.80
42227;DHT22;27892;52.378;13.122;2023-04-12T14:01:59;18.70;29.20
42227;DHT22;27892;52.378;13.122;2023-04-12T14:04:29;19.00;29.40
42227;DHT22;27892;52.378;13.122;2023-04-12T14:06:55;19.00;29.20
42227;DHT22;27892;52.378;13.122;2023-04-12T14:09:25;19.10;29.50
42227;DHT22;27892;52.378;13.122;2023-04-12T14:12:03;19.00;28.60
42227;DHT22;27892;52.378;13.122;2023-04-12T14:14:29;18.90;29.30
42227;DHT22;27892;52.378;13.122;2023-04-12T14:16:55;18.80;29.70
42227;DHT22;27892;52.378;13.122;2023-04-12T14:19:26;18.80;30.10
42227;DHT22;27892;52.378;13.122;2023-04-12T14:21:52;18.60;31.00
42227;DHT22;27892;52.378;13.122;2023-04-12T14:24:19;18.30;32.50
42227;DHT22;27892;52.378;13.122;2023-04-12T14:26:45;18.10;34.20
42227;DHT22;27892;52.378;13.122;2023-04-12T14:29:11;18.00;34.90
42227;DHT22;27892;52.378;13.122;2023-04-12T14:31:38;17.70;36.70
42227;DHT22;27892;52.378;13.122;2023-04-12T14:34:04;17.50;37.70
42227;DHT22;27892;52.378;13.122;2023-04-12T14:36:30;17.30;38.10
42227;DHT22;27892;52.378;13.122;2023-04-12T14:38:56;17.30;38.10
42227;DHT22;27892;52.378;13.122;2023-04-12T14:41:22;17.40;38.50
42227;DHT22;27892;52.378;13.122;2023-04-12T14:43:47;17.40;38.90
42227;DHT22;27892;52.378;13.122;2023-04-12T14:46:16;17.30;41.30
42227;DHT22;27892;52.378;13.122;2023-04-12T14:48:42;17.30;40.60
42227;DHT22;27892;52.378;13.122;2023-04-12T14:51:08;17.20;42.30
42227;DHT22;27892;52.378;13.122;2023-04-12T14:53:34;17.00;43.70
42227;DHT22;27892;52.378;13.122;2023-04-12T14:56:00;16.70;43.50
42227;DHT22;27892;52.378;13.122;2023-04-12T14:58:28;16.30;45.60
42227;DHT22;27892;52.378;13.122;2023-04-12T15:00:57;16.40;44.90
42227;DHT22;27892;52.378;13.122;2023-04-12T15:03:25;16.30;45.50
42227;DHT22;27892;52.378;13.122;2023-04-12T15:05:57;16.30;45.30
42227;DHT22;27892;52.378;13.122;2023-04-12T15:08:23;16.30;45.70
42227;DHT22;27892;52.378;13.122;2023-04-12T15:10:49;16.30;46.60
42227;DHT22;27892;52.378;13.122;2023-04-12T15:13:15;16.20;47.80
42227;DHT22;27892;52.378;13.122;2023-04-12T15:15:41;16.10;47.00
42227;DHT22;27892;52.378;13.122;2023-04-12T15:18:07;16.00;47.70
42227;DHT22;27892;52.378;13.122;2023-04-12T15:20:33;15.90;49.20
42227;DHT22;27892;52.378;13.122;2023-04-12T15:23:00;15.80;49.80
42227;DHT22;27892;52.378;13.122;2023-04-12T15:25:25;15.80;50.40
42227;DHT22;27892;52.378;13.122;2023-04-12T15:27:51;15.80;49.50
42227;DHT22;27892;52.378;13.122;2023-04-12T15:30:17;15.90;49.40
42227;DHT22;27892;52.378;13.122;2023-04-12T15:32:43;16.00;50.00
42227;DHT22;27892;52.378;13.122;2023-04-12T15:35:08;16.00;50.80
42227;DHT22;27892;52.378;13.122;2023-04-12T15:37:35;16.00;51.00
42227;DHT22;27892;52.378;13.122;2023-04-12T15:40:01;16.10;51.50